• Join FlightAware (Why Join?)
  • Login
  • US Flag 
03:24AM EDT


 

Airport Tracker/Info


-or-


 

Live Flight TrackerFlight Track Log ✈ VOZ1164 ✈ 07-May-2013 ✈ YCFS - YSSY / SYD

Flight Track Log - Related Links

Times and Time Zones

All times are in EDT time to prevent confusion due to time zone crossing. See the VOZ1164 flight status page for this flight to view local times or setup timezone preferences in your user account.

Time Position Orientation Groundspeed Altitude Reporting Facility
EDT Latitude Longitude Course Direction KTS MPH feet Rate Location/Type
11:12PM -30.3122 153.1172 223° Southwest 20,700  Level Aus ATC (Calculated)
11:13PM -30.3733 153.0495 222° Southwest 20,700 -3,840 Level Aus ATC (Calculated)
11:13PM -30.4343 152.9817 220° Southwest 20,700 -7,200 Level Aus ATC (Calculated)
11:14PM -30.4870 152.9295 224° Southwest 275 316 10,900 -5,040 Descending Aus ATC (RADAR)
11:15PM -30.5399 152.8712 224° Southwest 315 362 12,500 1,200 Climbing Aus ATC (RADAR)
11:15PM -30.5677 152.8381 226° Southwest 336 387 12,400 -120 Descending Aus ATC (RADAR)
11:16PM -30.6087 152.7941 223° Southwest 342 394 12,400  Level Aus ATC (RADAR)
11:17PM -30.6836 152.7097 224° Southwest 352 405 12,400 1,500 Level Aus ATC (RADAR)
11:18PM -30.7125 152.6751 226° Southwest 356 410 14,700 4,800 Climbing Aus ATC (RADAR)
11:18PM -30.7520 152.6326 223° Southwest 335 386 17,200 3,480 Climbing Aus ATC (RADAR)
11:19PM -30.7991 152.5751 226° Southwest 329 379 19,400 2,700 Climbing Aus ATC (RADAR)
11:20PM -30.8449 152.5249 223° Southwest 338 389 21,100 2,580 Climbing Aus ATC (RADAR)
11:20PM -30.8952 152.4653 225° Southwest 347 399 23,100 2,100 Climbing Aus ATC (RADAR)
11:21PM -30.9249 152.4319 224° Southwest 354 407 23,600 2,040 Climbing Aus ATC (RADAR)
11:22PM -31.0229 152.3193 225° Southwest 369 425 26,700 2,280 Climbing Aus ATC (RADAR)
11:22PM -31.0539 152.2841 224° Southwest 373 429 27,600 2,040 Climbing Aus ATC (RADAR)
11:23PM -31.0849 152.2489 224° Southwest 375 432 28,400 720 Climbing Aus ATC (RADAR)
11:23PM -31.1368 152.1890 225° Southwest 397 457 28,400  Level Aus ATC (RADAR)
11:24PM -31.1989 152.1163 225° Southwest 421 484 28,400  Level Aus ATC (RADAR)
11:25PM -31.2390 152.0551 233° Southwest 405 466 28,400 -540 Level Aus ATC (RADAR)
11:25PM -31.2410 152.0390 233° Southwest 412 474 28,000 1,440 Descending FlightAware
11:26PM -31.2600 151.9590 254° West 391 450 29,700 2,940 Climbing FlightAware
11:26PM -31.2728 151.9070 254° West 390 449 30,800 1,620 Climbing Aus ATC (RADAR)
11:26PM -31.2800 151.8730 254° West 396 456 30,800 960 Level FlightAware
11:27PM -31.3020 151.7780 255° West 399 459 31,900 1,860 Climbing FlightAware
11:27PM -31.3162 151.7194 255° West 398 458 32,900 1,500 Climbing Aus ATC (RADAR)
11:28PM -31.3210 151.6990 255° West 398 458 32,900 1,080 Level FlightAware
11:28PM -31.3380 151.6250 255° West 394 453 33,900 2,460 Climbing FlightAware
11:29PM -31.3600 151.5260 255° West 355 409 36,400 1,980 Climbing FlightAware
11:30PM -31.3894 151.4353 255° West 372 428 37,000 300 Climbing Aus ATC (RADAR)
11:30PM -31.3980 151.4240 255° West 365 420 36,700 240 Descending FlightAware
11:31PM -31.4400 151.3900 215° Southwest 387 445 37,200 1,560 Climbing FlightAware
11:31PM -31.4963 151.3641 215° Southwest 383 441 38,200 1,020 Climbing Aus ATC (RADAR)
11:31PM -31.5010 151.3620 215° Southwest 384 442 37,900 -240 Descending FlightAware
11:32PM -31.5760 151.3280 201° Southwest 381 438 38,000 60 Climbing FlightAware
11:33PM -31.6460 151.2970 201° Southwest 381 438 38,000 240 Level FlightAware
11:33PM -31.6946 151.2764 201° Southwest 378 435 38,300  Climbing Aus ATC (RADAR)
11:33PM -31.7090 151.2690 201° Southwest 382 440 38,000  Descending FlightAware
11:34PM -31.7525 151.2506 201° Southwest 379 436 38,300  Climbing Aus ATC (RADAR)
11:34PM -31.7790 151.2380 201° Southwest 383 441 38,000  Descending FlightAware
11:34PM -31.8271 151.2173 201° Southwest 382 440 38,300  Climbing Aus ATC (RADAR)
11:35PM -31.8550 151.2040 201° Southwest 385 443 38,000 120 Descending FlightAware
11:35PM -31.8931 151.1870 201° Southwest 383 441 38,400  Climbing Aus ATC (RADAR)
11:36PM -31.9400 151.1750 201° Southwest 390 449 38,000 -360 Descending FlightAware
11:36PM -32.0030 151.1950 165° South 406 467 38,000  Level FlightAware
11:37PM -32.0570 151.2600 134° Southeast 426 490 38,000  Level FlightAware
11:37PM -32.0833 151.3371 134° Southeast 412 474 38,000 -720 Level Aus ATC (RADAR)
11:37PM -32.0810 151.3320 134° Southeast 418 481 37,600 -1,620 Descending FlightAware
11:38PM -32.0990 151.3910 134° Southeast 403 464 37,300 -2,160 Descending Aus ATC (RADAR)
11:38PM -32.1210 151.4320 134° Southeast 403 464 36,000 -2,820 Descending FlightAware
11:39PM -32.1440 151.4560 139° Southeast 395 455 35,300 -1,620 Descending FlightAware
11:39PM -32.2120 151.4850 139° Southeast 394 453 34,500 -1,680 Descending Aus ATC (RADAR)
11:39PM -32.2100 151.4820 139° Southeast 361 415 34,200 -1,440 Descending FlightAware
11:40PM -32.2714 151.4617 139° Southeast 340 391 33,600 -1,500 Descending Aus ATC (RADAR)
11:40PM -32.2700 151.4610 139° Southeast 333 383 33,200 -1,800 Descending FlightAware
11:41PM -32.3240 151.4270 139° Southeast 320 368 32,300 -1,080 Descending FlightAware
11:41PM -32.3303 151.4229 139° Southeast 322 371 32,500 -960 Climbing Aus ATC (RADAR)
11:41PM -32.3608 151.3991 139° Southeast 315 362 31,900 -1,800 Descending Aus ATC (RADAR)
11:41PM -32.3740 151.3840 139° Southeast 309 356 31,200 -1,380 Descending FlightAware
11:42PM -32.3981 151.3596 139° Southeast 305 351 31,100 -1,560 Descending Aus ATC (RADAR)
11:42PM -32.4140 151.3430 139° Southeast 304 350 30,300 -1,500 Descending FlightAware
11:43PM -32.4672 151.2899 139° Southeast 302 348 29,500 -1,440 Descending Aus ATC (RADAR)
11:43PM -32.4650 151.2920 139° Southeast 300 345 29,100 -1,920 Descending FlightAware
11:43PM -32.5090 151.2470 221° Southwest 294 338 28,100 -1,380 Descending FlightAware
11:44PM -32.5530 151.2030 220° Southwest 290 334 27,200 -780 Descending FlightAware
11:45PM -32.5930 151.1620 221° Southwest 287 330 27,000 -180 Descending FlightAware
11:45PM -32.6350 151.1200 220° Southwest 288 331 27,000 180 Level FlightAware
11:46PM -32.6816 151.0733 220° Southwest 288 331 27,300  Climbing Aus ATC (RADAR)
11:46PM -32.6750 151.0790 220° Southwest 288 331 27,000 -540 Descending FlightAware
11:47PM -32.7169 151.0373 220° Southwest 283 326 27,000 -540 Level Aus ATC (RADAR)
11:47PM -32.7180 151.0360 220° Southwest 286 329 26,600 -900 Descending FlightAware
11:48PM -32.7660 150.9870 221° Southwest 287 330 26,200 -360 Descending FlightAware
11:48PM -32.8023 150.9502 221° Southwest 283 326 26,200 -480 Level Aus ATC (RADAR)
11:48PM -32.8040 150.9490 221° Southwest 286 329 25,900 -1,260 Descending FlightAware
11:49PM -32.8270 150.9390 200° South 289 333 25,700 -600 Descending FlightAware
11:49PM -32.8750 150.9170 201° Southwest 286 329 25,400 -240 Descending FlightAware
11:50PM -32.9074 150.9022 201° Southwest 284 327 25,500 -540 Climbing Aus ATC (RADAR)
11:50PM -32.9310 150.8910 201° Southwest 284 327 25,000 -420 Descending FlightAware
11:51PM -32.9990 150.8960 176° South 289 333 25,000  Level FlightAware
11:51PM -33.0190 150.9180 137° Southeast 306 352 25,000  Level FlightAware
11:51PM -33.0290 150.9400 118° Southeast 313 360 25,000  Level FlightAware
11:52PM -33.0340 150.9670 102° East 319 367 25,000 780 Level FlightAware
11:52PM -33.0337 150.9977 102° East 322 371 25,400  Climbing Aus ATC (RADAR)
11:53PM -32.9990 151.0520 102° East 330 380 25,000 -480 Descending FlightAware
11:53PM -32.9770 151.0580 13° North 327 376 25,000  Level FlightAware
11:53PM -32.9310 151.0600 13° North 325 374 25,000 660 Level FlightAware
11:53PM -32.9219 151.0600 13° North 324 373 25,400 600 Climbing Aus ATC (RADAR)
11:54PM -32.8693 151.0658 13° North 327 376 25,400 -540 Level Aus ATC (RADAR)
11:54PM -32.8570 151.0680 13° North 326 375 25,000  Descending FlightAware
11:55PM -32.7869 151.0692 13° North 321 369 25,400  Climbing Aus ATC (RADAR)
11:55PM -32.7720 151.0640 13° North 311 358 25,000 -600 Descending FlightAware
11:56PM -32.7430 151.0420 327° Northwest 307 353 25,000 -480 Level FlightAware
11:56PM -32.7230 150.9990 299° West 288 331 24,600 -540 Descending FlightAware
11:56PM -32.7224 150.9666 299° West 296 341 24,600 -1,980 Level Aus ATC (RADAR)
11:57PM -32.7340 150.9390 299° West 288 331 23,300 -3,180 Descending FlightAware
11:57PM -32.7500 150.9240 218° Southwest 324 373 22,500 -2,400 Descending FlightAware
11:57PM -32.7710 150.9170 196° South 329 379 22,100 -600 Descending FlightAware
11:58PM -32.8320 150.9060 189° South 324 373 22,000 300 Descending FlightAware
11:58PM -32.8715 150.9155 189° South 321 369 22,400 -240 Climbing Aus ATC (RADAR)
11:58PM -32.8790 150.9200 189° South 331 381 21,900 -2,040 Descending FlightAware
11:59PM -32.9380 150.9410 163° South 323 372 20,700 -1,920 Descending FlightAware
12:00AM -33.0040 150.9640 164° South 320 368 19,200 -2,100 Descending FlightAware
12:00AM -33.0614 150.9832 164° South 323 372 18,000 -2,280 Descending Aus ATC (RADAR)
12:00AM -33.0610 150.9840 164° South 321 369 17,700 -2,280 Descending FlightAware
12:01AM -33.1250 151.0051 164° South 317 365 16,300 -2,400 Descending Aus ATC (RADAR)
12:01AM -33.1180 151.0030 164° South 315 362 16,100 -2,100 Descending FlightAware
12:02AM -33.1596 151.0167 164° South 311 358 15,400 -2,280 Descending Aus ATC (RADAR)
12:02AM -33.1680 151.0200 164° South 300 345 14,800 -2,160 Descending FlightAware
12:02AM -33.2070 151.0332 164° South 304 350 14,200 -2,400 Descending Aus ATC (RADAR)
12:02AM -33.2260 151.0400 164° South 298 343 13,200 -2,460 Descending FlightAware
12:03AM -33.2980 151.0390 181° South 299 344 11,300 -1,800 Descending FlightAware
12:04AM -33.3365 151.0372 181° South 291 335 10,900 -1,680 Descending Aus ATC (RADAR)
12:04AM -33.3520 151.0380 181° South 289 333 10,200 -1,560 Descending FlightAware
12:04AM -33.3845 151.0422 181° South 289 333 10,000 -1,440 Descending Aus ATC (RADAR)
12:04AM -33.3850 151.0430 181° South 294 338 9,600 -1,980 Descending FlightAware
12:05AM -33.4250 151.0520 169° South 280 322 8,800 -1,500 Descending FlightAware
12:05AM -33.4620 151.0610 169° South 281 323 8,100 -1,260 Descending FlightAware
12:06AM -33.4941 151.0696 169° South 272 313 7,800 -1,680 Descending Aus ATC (RADAR)
12:06AM -33.4960 151.0710 169° South 269 310 7,400 -1,800 Descending FlightAware
12:06AM -33.5330 151.0810 167° South 267 307 6,700 -1,440 Descending FlightAware
12:07AM -33.5700 151.0900 169° South 267 307 6,000 -1,440 Descending FlightAware
12:07AM -33.6010 151.0980 168° South 261 300 5,400 -1,500 Descending FlightAware
12:08AM -33.6230 151.1040 167° South 265 305 4,900 -780 Descending FlightAware
12:08AM -33.6761 151.1176 167° South 250 288 4,700 -840 Descending Aus ATC (RADAR)
12:08AM -33.6850 151.1200 167° South 233 268 4,200 -1,560 Descending FlightAware
12:09AM -33.7010 151.1240 168° South 235 270 4,000 -900 Descending FlightAware
12:09AM -33.7270 151.1310 167° South 216 249 3,600 -900 Descending FlightAware
12:10AM -33.7580 151.1390 168° South 216 249 3,200 -720 Descending FlightAware
12:10AM -33.7760 151.1430 170° South 213 245 3,000 -360 Descending FlightAware
12:10AM -33.8109 151.1521 170° South 206 237 2,900 -720 Descending Aus ATC (RADAR)
12:10AM -33.8100 151.1520 170° South 198 228 2,600 -1,740 Descending FlightAware
12:11AM -33.8360 151.1590 167° South 179 206 2,000 -1,140 Descending FlightAware
12:11AM -33.8600 151.1650 168° South 168 193 1,500 -600 Descending FlightAware
12:12AM -33.8798 151.1703 168° South 164 189 1,500 -960 Level Aus ATC (RADAR)
12:12AM -33.8790 151.1700 168° South 147 169 1,100 -960 Descending FlightAware
12:12AM -33.8954 151.1742 168° South 140 161 1,100 -840 Level Aus ATC (RADAR)
12:12AM -33.8970 151.1750 168° South 117 135 700 -1,380 Descending FlightAware
12:13AM -33.9050 151.1770 168° South 119 137 600  Descending FlightAware
12:13AM -33.9198 151.1807 168° South 121 139 700 -480 Climbing Aus ATC (RADAR)
12:13AM -33.9190 151.1800 168° South 121 139 400 -9,000 Descending FlightAware
12:14AM -33.9350 151.1850 165° South 117 135 -840 Descending FlightAware
12:14AM -33.9470 151.1880 168° South 117 135  Level FlightAware
12:14AM -33.9630 151.1920 168° South 51 59  Level FlightAware
12:15AM -33.9660 151.1920 180° South 32 37  Level FlightAware
12:15AM -33.9670 151.1920 180° South 11 13  Level FlightAware
12:15AM -33.9670 151.1910 270° West 12 14  Level FlightAware
12:15AM -33.9660 151.1910 360° North 15 17  Level FlightAware
12:16AM -33.9640 151.1900 337° Northwest 21 24  Level FlightAware